createdAt,value
2022-11-14T00:01:22.057Z,20.67
2022-11-14T00:04:29.379Z,21.93
2022-11-14T00:07:33.106Z,22.00
2022-11-14T00:10:35.724Z,19.67
2022-11-14T00:13:38.383Z,21.00
2022-11-14T00:16:42.352Z,23.13
2022-11-14T00:19:45.527Z,22.97
2022-11-14T00:22:48.130Z,22.67
2022-11-14T00:25:50.879Z,21.40
2022-11-14T00:28:54.842Z,22.93
2022-11-14T00:31:58.795Z,21.37
2022-11-14T00:35:01.414Z,22.43
2022-11-14T00:38:04.064Z,22.80
2022-11-14T00:41:07.014Z,23.20
2022-11-14T00:44:11.397Z,22.37
2022-11-14T00:47:15.371Z,23.20
2022-11-14T00:50:18.245Z,22.33
2022-11-14T00:53:20.884Z,23.10
2022-11-14T00:56:23.532Z,22.60
2022-11-14T00:59:26.192Z,23.07
2022-11-14T01:02:30.154Z,23.67
2022-11-14T01:05:32.779Z,22.07
2022-11-14T01:08:35.893Z,23.27
2022-11-14T01:11:39.345Z,23.07
2022-11-14T01:14:42.028Z,23.13
2022-11-14T01:17:46.136Z,22.17
2022-11-14T01:20:49.863Z,23.60
2022-11-14T01:23:52.516Z,22.10
2022-11-14T01:26:56.019Z,23.07
2022-11-14T01:29:58.635Z,23.03
2022-11-14T01:33:02.845Z,23.47
2022-11-14T01:36:06.747Z,22.43
2022-11-14T01:39:09.357Z,22.80
2022-11-14T01:42:12.040Z,22.77
2022-11-14T01:45:57.337Z,23.27
2022-11-14T01:49:06.075Z,22.87
2022-11-14T01:52:13.091Z,23.57
2022-11-14T01:55:15.735Z,22.17
2022-11-14T01:58:18.393Z,23.30
2022-11-14T02:01:21.292Z,23.97
2022-11-14T02:04:28.645Z,23.60
2022-11-14T02:07:35.330Z,24.70
2022-11-14T02:10:38.013Z,23.30
2022-11-14T02:13:40.894Z,23.73
2022-11-14T02:17:00.792Z,24.57
2022-11-14T02:20:22.463Z,23.63
2022-11-14T02:23:28.960Z,23.67
2022-11-14T02:26:36.524Z,23.20
2022-11-14T02:29:39.559Z,24.77
2022-11-14T02:33:09.424Z,22.93
2022-11-14T02:36:06.834Z,22.87
2022-11-14T02:39:09.456Z,24.80
2022-11-14T02:42:12.068Z,24.20
2022-11-14T02:45:14.914Z,24.30
2022-11-14T02:48:17.530Z,23.97
2022-11-14T02:51:21.875Z,23.80
2022-11-14T02:54:24.507Z,24.53
2022-11-14T02:57:27.139Z,23.87
2022-11-14T03:00:29.847Z,25.43
2022-11-14T03:03:32.605Z,24.27
2022-11-14T03:06:36.582Z,23.30
2022-11-14T03:09:39.222Z,25.23
2022-11-14T03:12:41.901Z,24.23
2022-11-14T03:15:44.544Z,24.53
2022-11-14T03:18:47.219Z,24.17
2022-11-14T03:21:51.189Z,23.70
2022-11-14T03:24:54.091Z,25.30
2022-11-14T03:27:56.728Z,25.27
2022-11-14T03:30:59.623Z,23.13
2022-11-14T03:34:02.282Z,23.47
2022-11-14T03:37:06.271Z,22.47
2022-11-14T03:40:10.213Z,23.93
2022-11-14T03:43:12.873Z,24.17
2022-11-14T03:46:15.494Z,24.43
2022-11-14T03:49:18.140Z,23.27
2022-11-14T03:52:22.140Z,24.47
2022-11-14T03:55:24.796Z,24.77
2022-11-14T03:58:27.815Z,24.03
2022-11-14T04:01:30.776Z,24.30
2022-11-14T04:04:33.480Z,23.07
2022-11-14T04:07:37.491Z,23.70
2022-11-14T04:10:41.273Z,23.83
2022-11-14T04:13:43.908Z,23.40
2022-11-14T04:16:46.508Z,23.43
2022-11-14T04:19:49.145Z,23.57
2022-11-14T04:22:53.092Z,24.27
2022-11-14T04:25:55.726Z,23.53
2022-11-14T04:28:58.363Z,23.70
2022-11-14T04:32:00.974Z,23.43
2022-11-14T04:35:03.721Z,24.30
2022-11-14T04:38:08.084Z,23.20
2022-11-14T04:41:10.762Z,24.50
2022-11-14T04:44:13.432Z,23.70
2022-11-14T04:47:16.064Z,26.70
2022-11-14T04:50:18.702Z,25.00
2022-11-14T04:53:22.653Z,23.23
2022-11-14T04:56:25.509Z,23.23
2022-11-14T04:59:28.242Z,23.40
2022-11-14T05:02:32.012Z,24.00
2022-11-14T05:05:39.251Z,25.67
2022-11-14T05:08:46.496Z,23.87
2022-11-14T05:11:49.128Z,24.70
2022-11-14T05:14:51.745Z,25.50
2022-11-14T05:17:54.366Z,31.57
2022-11-14T05:21:00.023Z,25.60
2022-11-14T05:24:04.119Z,25.50
2022-11-14T05:27:06.849Z,25.60
2022-11-14T05:30:10.852Z,25.77
2022-11-14T05:33:13.459Z,26.07
2022-11-14T05:36:17.484Z,25.87
2022-11-14T05:39:21.474Z,25.67
2022-11-14T05:42:24.105Z,24.47
2022-11-14T05:45:26.745Z,25.47
2022-11-14T05:48:29.972Z,24.33
2022-11-14T05:51:32.792Z,24.60
2022-11-14T05:54:36.802Z,26.20
2022-11-14T05:57:39.420Z,25.10
2022-11-14T06:00:50.757Z,24.30
2022-11-14T06:03:56.231Z,25.13
2022-11-14T06:06:58.943Z,24.80
2022-11-14T06:10:02.980Z,25.30
2022-11-14T06:13:05.662Z,25.20
2022-11-14T06:16:10.845Z,24.87
2022-11-14T06:19:13.460Z,25.50
2022-11-14T06:22:16.078Z,25.13
2022-11-14T06:25:20.147Z,24.23
2022-11-14T06:28:22.742Z,25.63
2022-11-14T06:31:26.328Z,26.27
2022-11-14T06:34:28.974Z,25.87
2022-11-14T06:37:33.864Z,29.42
2022-11-14T06:40:37.938Z,26.63
2022-11-14T06:43:42.418Z,31.97
2022-11-14T06:46:45.049Z,28.73
2022-11-14T06:49:47.707Z,26.33
2022-11-14T06:52:50.371Z,26.90
2022-11-14T06:55:58.891Z,26.73
2022-11-14T06:59:01.489Z,26.80
2022-11-14T07:02:04.148Z,26.43
2022-11-14T07:05:07.344Z,26.53
2022-11-14T07:08:10.148Z,26.40
2022-11-14T07:11:22.640Z,26.87
2022-11-14T07:14:25.316Z,26.43
2022-11-14T07:17:31.188Z,28.03
2022-11-14T07:20:34.089Z,28.13
2022-11-14T07:23:36.863Z,28.27
2022-11-14T07:26:40.857Z,25.77
2022-11-14T07:29:43.460Z,25.33
2022-11-14T07:32:46.125Z,25.30
2022-11-14T07:35:49.478Z,25.57
2022-11-14T07:38:52.294Z,27.37
2022-11-14T07:41:56.260Z,28.23
2022-11-14T07:44:58.864Z,27.03
2022-11-14T07:48:03.201Z,26.47
2022-11-14T07:51:07.637Z,25.57
2022-11-14T07:54:11.854Z,27.03
2022-11-14T07:57:16.227Z,26.80
2022-11-14T08:00:19.299Z,28.23
2022-11-14T08:03:21.896Z,28.70
2022-11-14T08:06:24.561Z,28.93
2022-11-14T08:09:27.166Z,27.83
2022-11-14T08:12:31.154Z,27.50
2022-11-14T08:15:33.803Z,26.23
2022-11-14T08:18:36.472Z,27.20
2022-11-14T08:21:39.140Z,26.40
2022-11-14T08:24:41.741Z,26.80
2022-11-14T08:27:45.712Z,26.73
2022-11-14T08:30:48.312Z,26.37
2022-11-14T08:33:52.535Z,27.40
2022-11-14T08:36:56.625Z,26.30
2022-11-14T08:39:59.252Z,26.73
2022-11-14T08:43:03.868Z,26.50
2022-11-14T08:46:06.765Z,27.50
2022-11-14T08:49:09.591Z,25.60
2022-11-14T08:52:16.675Z,26.57
2022-11-14T08:55:19.945Z,27.57
2022-11-14T08:58:23.920Z,27.00
2022-11-14T09:01:26.600Z,27.40
2022-11-14T09:04:29.335Z,27.83
2022-11-14T09:07:32.131Z,26.70
2022-11-14T09:10:34.851Z,27.00
2022-11-14T09:13:38.853Z,27.67
2022-11-14T09:16:41.479Z,26.43
2022-11-14T09:19:44.110Z,27.07
2022-11-14T09:22:47.006Z,27.30
2022-11-14T09:25:49.650Z,27.77
2022-11-14T09:28:53.628Z,26.90
2022-11-14T09:31:57.093Z,26.43
2022-11-14T09:34:59.731Z,26.53
2022-11-14T09:38:03.239Z,26.77
2022-11-14T09:41:20.849Z,26.97
2022-11-14T09:44:37.142Z,26.00
2022-11-14T09:47:44.104Z,25.33
2022-11-14T09:50:52.650Z,26.60
2022-11-14T09:54:01.629Z,25.73
2022-11-14T09:57:04.352Z,26.60
2022-11-14T10:00:16.523Z,26.20
2022-11-14T10:03:29.077Z,25.73
2022-11-14T10:06:36.480Z,24.60
2022-11-14T10:09:51.495Z,24.53
2022-11-14T10:13:03.155Z,25.07
2022-11-14T10:16:16.205Z,25.20
2022-11-14T10:19:27.431Z,25.27
2022-11-14T10:22:51.106Z,25.57
2022-11-14T10:26:01.746Z,26.23
2022-11-14T10:29:44.137Z,26.00
2022-11-14T10:33:05.911Z,27.07
2022-11-14T10:36:16.302Z,25.17
2022-11-14T10:39:22.914Z,24.90
2022-11-14T10:42:35.588Z,25.77
2022-11-14T10:45:43.231Z,24.97
2022-11-14T10:48:50.382Z,24.57
2022-11-14T10:51:55.868Z,24.43
2022-11-14T10:55:06.246Z,22.80
2022-11-14T10:58:11.820Z,23.87
2022-11-14T11:01:36.277Z,23.13
2022-11-14T11:04:42.406Z,23.03
2022-11-14T11:08:28.123Z,23.37
2022-11-14T11:11:32.957Z,21.57
2022-11-14T11:14:36.133Z,24.47
2022-11-14T11:17:42.929Z,21.93
2022-11-14T11:21:03.672Z,22.53
2022-11-14T11:24:07.196Z,21.50
2022-11-14T11:27:23.789Z,21.70
2022-11-14T11:30:27.352Z,21.90
2022-11-14T11:33:32.049Z,22.50
2022-11-14T11:36:41.734Z,22.23
2022-11-14T11:39:49.923Z,23.00
2022-11-14T11:43:37.196Z,21.73
2022-11-14T11:46:30.204Z,23.40
2022-11-14T11:49:47.431Z,21.67
2022-11-14T11:53:03.720Z,21.33
2022-11-14T11:56:11.276Z,22.67
2022-11-14T11:59:27.975Z,21.53
2022-11-14T12:02:31.267Z,21.10
2022-11-14T12:05:43.347Z,20.77
2022-11-14T12:09:00.701Z,22.30
2022-11-14T12:12:07.968Z,22.63
2022-11-14T12:15:24.986Z,22.33
2022-11-14T12:18:44.602Z,22.77
2022-11-14T12:22:12.882Z,21.60
2022-11-14T12:25:35.895Z,22.90
2022-11-14T12:29:05.537Z,24.40
2022-11-14T12:32:14.252Z,22.80
2022-11-14T12:35:22.106Z,22.00
2022-11-14T12:38:25.460Z,22.27
2022-11-14T12:41:32.806Z,22.30
2022-11-14T12:44:38.411Z,23.07
2022-11-14T12:48:23.032Z,21.90
2022-11-14T12:51:51.328Z,23.67
2022-11-14T12:54:53.966Z,22.37
2022-11-14T12:58:04.978Z,21.23
2022-11-14T13:01:23.354Z,22.30
2022-11-14T13:04:36.726Z,22.50
2022-11-14T13:07:52.167Z,21.47
2022-11-14T13:10:54.807Z,21.37
2022-11-14T13:14:20.563Z,21.27
2022-11-14T13:17:44.293Z,22.40
2022-11-14T13:21:20.048Z,21.60
2022-11-14T13:24:22.727Z,20.93
2022-11-14T13:27:52.292Z,21.87
2022-11-14T13:31:07.277Z,20.93
2022-11-14T13:34:41.086Z,21.37
2022-11-14T13:38:08.222Z,21.47
2022-11-14T13:41:41.352Z,20.83
2022-11-14T13:45:22.011Z,20.93
2022-11-14T13:48:47.320Z,20.40
2022-11-14T13:51:53.802Z,20.87
2022-11-14T13:54:58.843Z,20.90
2022-11-14T13:58:17.315Z,20.73
2022-11-14T14:01:38.252Z,20.97
2022-11-14T14:04:53.806Z,20.23
2022-11-14T14:08:12.796Z,20.70
2022-11-14T14:11:35.072Z,21.07
2022-11-14T14:14:56.367Z,21.03
2022-11-14T14:18:08.584Z,22.80
2022-11-14T14:21:19.321Z,21.93
2022-11-14T14:24:41.653Z,22.83
2022-11-14T14:27:59.383Z,22.77
2022-11-14T14:31:03.512Z,21.53
2022-11-14T14:34:22.579Z,21.50
2022-11-14T14:37:27.241Z,22.37
2022-11-14T14:40:33.784Z,21.80
2022-11-14T14:43:38.017Z,22.80
2022-11-14T14:46:40.687Z,22.93
2022-11-14T14:49:44.362Z,22.33
2022-11-14T14:52:46.979Z,24.00
2022-11-14T14:55:54.800Z,21.93
2022-11-14T14:58:58.768Z,23.03
2022-11-14T15:02:01.524Z,23.37
2022-11-14T15:05:06.278Z,22.57
2022-11-14T15:08:14.804Z,22.77
2022-11-14T15:11:17.556Z,22.07
2022-11-14T15:14:24.569Z,22.77
2022-11-14T15:17:31.603Z,23.60
2022-11-14T15:20:37.248Z,22.80
2022-11-14T15:23:40.126Z,23.10
2022-11-14T15:26:44.933Z,21.87
2022-11-14T15:29:51.240Z,22.43
2022-11-14T15:32:55.662Z,22.00
2022-11-14T15:36:10.738Z,22.27
2022-11-14T15:39:27.795Z,22.30
2022-11-14T15:42:30.915Z,21.97
2022-11-14T15:45:41.878Z,20.77
2022-11-14T15:48:44.602Z,22.20
2022-11-14T15:51:50.534Z,21.87
2022-11-14T15:54:53.166Z,22.20
2022-11-14T15:58:21.515Z,23.03
2022-11-14T16:01:25.793Z,22.40
2022-11-14T16:04:32.000Z,22.43
2022-11-14T16:07:34.711Z,24.03
2022-11-14T16:10:37.663Z,22.53
2022-11-14T16:13:40.256Z,21.93
2022-11-14T16:16:44.232Z,22.83
2022-11-14T16:19:46.942Z,22.53
2022-11-14T16:22:50.806Z,22.57
2022-11-14T16:25:53.592Z,21.73
2022-11-14T16:28:56.973Z,22.87
2022-11-14T16:32:00.982Z,21.73
2022-11-14T16:35:03.710Z,22.60
2022-11-14T16:38:06.329Z,21.60
2022-11-14T16:41:09.539Z,22.40
2022-11-14T16:44:17.174Z,21.63
2022-11-14T16:47:21.212Z,21.57
2022-11-14T16:50:23.843Z,21.20
2022-11-14T16:53:26.453Z,21.80
2022-11-14T16:56:30.963Z,21.97
2022-11-14T16:59:33.668Z,21.93
2022-11-14T17:02:37.779Z,22.53
2022-11-14T17:05:44.223Z,21.43
2022-11-14T17:08:46.861Z,20.50
2022-11-14T17:11:49.511Z,22.40
2022-11-14T17:14:52.176Z,22.67
2022-11-14T17:17:57.358Z,22.60
2022-11-14T17:21:00.030Z,23.13
2022-11-14T17:24:02.754Z,21.20
2022-11-14T17:27:05.551Z,21.13
2022-11-14T17:30:12.119Z,21.07
2022-11-14T17:33:16.066Z,21.80
2022-11-14T17:36:18.867Z,21.60
2022-11-14T17:39:21.449Z,20.87
2022-11-14T17:42:24.138Z,21.30
2022-11-14T17:45:26.762Z,20.87
2022-11-14T17:48:31.176Z,21.63
2022-11-14T17:51:33.987Z,20.80
2022-11-14T17:54:37.677Z,21.60
2022-11-14T17:57:40.356Z,21.63
2022-11-14T18:00:42.971Z,20.50
2022-11-14T18:03:47.168Z,19.90
2022-11-14T18:06:49.851Z,21.40
2022-11-14T18:09:52.563Z,21.60
2022-11-14T18:12:55.203Z,20.90
2022-11-14T18:16:02.035Z,20.87
2022-11-14T18:19:06.273Z,20.80
2022-11-14T18:22:08.937Z,21.33
2022-11-14T18:25:11.545Z,21.43
2022-11-14T18:28:14.183Z,21.90
2022-11-14T18:31:16.773Z,21.37
2022-11-14T18:34:20.739Z,21.13
2022-11-14T18:37:23.425Z,21.13
2022-11-14T18:40:26.087Z,21.97
2022-11-14T18:43:31.992Z,21.97
2022-11-14T18:46:37.521Z,21.00
2022-11-14T18:49:41.727Z,21.33
2022-11-14T18:52:44.361Z,20.13
2022-11-14T18:55:47.509Z,19.90
2022-11-14T18:58:54.051Z,20.90
2022-11-14T19:01:58.197Z,21.30
2022-11-14T19:05:02.252Z,20.03
2022-11-14T19:08:07.157Z,20.23
2022-11-14T19:11:32.585Z,19.73
2022-11-14T19:14:35.243Z,21.93
2022-11-14T19:17:37.918Z,21.23
2022-11-14T19:20:41.880Z,21.17
2022-11-14T19:23:44.516Z,20.90
2022-11-14T19:26:47.159Z,20.87
2022-11-14T19:29:50.535Z,21.50
2022-11-14T19:32:53.143Z,21.23
2022-11-14T19:35:57.227Z,21.40
2022-11-14T19:39:01.643Z,20.13
2022-11-14T19:42:04.344Z,21.33
2022-11-14T19:45:08.023Z,21.07
2022-11-14T19:48:11.743Z,22.00
2022-11-14T19:51:17.875Z,20.73
2022-11-14T19:54:20.821Z,21.10
2022-11-14T19:57:23.441Z,21.07
2022-11-14T20:00:26.360Z,20.50
2022-11-14T20:03:29.636Z,21.57
2022-11-14T20:06:35.622Z,21.00
2022-11-14T20:09:38.275Z,22.67
2022-11-14T20:12:40.996Z,21.37
2022-11-14T20:15:43.676Z,21.00
2022-11-14T20:18:50.472Z,19.80
2022-11-14T20:21:57.320Z,20.73
2022-11-14T20:25:00.019Z,20.10
2022-11-14T20:28:02.783Z,20.27
2022-11-14T20:31:07.194Z,19.33
2022-11-14T20:34:11.128Z,21.40
2022-11-14T20:37:15.261Z,19.97
2022-11-14T20:40:18.135Z,19.77
2022-11-14T20:43:20.834Z,20.57
2022-11-14T20:46:23.516Z,20.13
2022-11-14T20:49:26.211Z,20.83
2022-11-14T20:52:30.856Z,20.07
2022-11-14T20:55:33.549Z,20.97
2022-11-14T20:58:36.285Z,20.83
2022-11-14T21:01:43.374Z,19.67
2022-11-14T21:04:46.686Z,19.77
2022-11-14T21:07:50.641Z,19.10
2022-11-14T21:11:02.086Z,19.97
2022-11-14T21:14:05.930Z,20.13
2022-11-14T21:17:08.525Z,20.17
2022-11-14T21:20:11.751Z,21.40
2022-11-14T21:23:15.800Z,20.30
2022-11-14T21:26:21.237Z,20.57
2022-11-14T21:29:23.956Z,20.20
2022-11-14T21:32:26.553Z,19.90
2022-11-14T21:35:32.231Z,20.00
2022-11-14T21:38:36.209Z,19.47
2022-11-14T21:41:38.828Z,20.20
2022-11-14T21:44:41.483Z,19.90
2022-11-14T21:47:44.144Z,19.90
2022-11-14T21:50:46.786Z,20.47
2022-11-14T21:53:53.875Z,19.90
2022-11-14T21:56:56.524Z,19.93
2022-11-14T21:59:59.152Z,19.23
2022-11-14T22:03:19.246Z,19.97
2022-11-14T22:06:22.188Z,20.77
2022-11-14T22:09:27.330Z,20.53
2022-11-14T22:12:29.961Z,19.60
2022-11-14T22:15:32.588Z,20.00
2022-11-14T22:18:35.286Z,20.63
2022-11-14T22:21:37.936Z,20.50
2022-11-14T22:24:41.910Z,20.03
2022-11-14T22:27:44.551Z,19.40
2022-11-14T22:30:47.165Z,20.67
2022-11-14T22:33:51.651Z,20.10
2022-11-14T22:36:54.296Z,19.80
2022-11-14T22:39:58.251Z,19.67
2022-11-14T22:43:01.153Z,19.27
2022-11-14T22:46:04.041Z,21.00
2022-11-14T22:49:06.676Z,19.20
2022-11-14T22:52:09.285Z,20.33
2022-11-14T22:55:17.832Z,19.43
2022-11-14T22:58:20.725Z,18.40
2022-11-14T23:01:26.142Z,20.00
2022-11-14T23:04:29.031Z,20.07
2022-11-14T23:07:31.683Z,19.87
2022-11-14T23:10:36.103Z,20.13
2022-11-14T23:13:39.388Z,19.00
2022-11-14T23:16:42.010Z,19.07
2022-11-14T23:19:44.654Z,19.83
2022-11-14T23:22:47.342Z,20.47
2022-11-14T23:25:51.356Z,19.03
2022-11-14T23:28:55.240Z,19.73
2022-11-14T23:31:57.887Z,20.03
2022-11-14T23:35:00.491Z,18.93
2022-11-14T23:38:04.732Z,19.67
2022-11-14T23:41:10.643Z,19.13
2022-11-14T23:44:13.246Z,19.07
2022-11-14T23:47:15.880Z,19.53
2022-11-14T23:50:18.715Z,19.20
2022-11-14T23:53:22.185Z,19.83
2022-11-14T23:56:26.153Z,18.63
2022-11-14T23:59:28.774Z,20.80
